This is the latest recevied weather packets stored in our database for station/object KE5WTH-14. If no packets are shown the sender has not sent any weather packets the latest 1 day(s).
| Time | Temp. | Humidity | Pressure | Rain* | Wind** | Luminosity | Snow |
|---|---|---|---|---|---|---|---|
| 1778078918 | 12.22° C | 81% | 1014.5 hPa | 0 mm | - | 109 W/m² | - |
| 1778078836 | 12.22° C | 82% | 1014.9 hPa | 0 mm | - | 86 W/m² | - |
| 1778078531 | 12.22° C | 82% | 1015.2 hPa | 0 mm | - | 84 W/m² | - |
| 1778078414 | 12.22° C | 81% | 1015.2 hPa | 0 mm | - | 92 W/m² | - |
| 1778078232 | 12.22° C | 82% | 1015.1 hPa | 0 mm | - | 60 W/m² | - |
| 1778078171 | 12.22° C | 82% | 1015.2 hPa | 0 mm | - | 60 W/m² | - |
| 1778078052 | 12.22° C | 82% | 1015.3 hPa | 0 mm | - | 58 W/m² | - |
| 1778077866 | 12.22° C | 82% | 1014.9 hPa | 0 mm | - | 88 W/m² | - |
| 1778077624 | 12.22° C | 83% | 1014.9 hPa | 0 mm | - | 72 W/m² | - |
| 1778077566 | 12.22° C | 83% | 1014.8 hPa | 0 mm | - | 74 W/m² | - |
| 1778077509 | 12.22° C | 83% | 1014.8 hPa | 0 mm | - | 65 W/m² | - |
| 1778077445 | 12.22° C | 83% | 1014.8 hPa | 0 mm | - | 55 W/m² | - |
| 1778077385 | 12.22° C | 83% | 1014.9 hPa | 0 mm | - | 49 W/m² | - |
| 1778077202 | 12.22° C | 83% | 1014.9 hPa | 0 mm | - | 55 W/m² | - |
| 1778076814 | 12.22° C | 84% | 1014.3 hPa | 0 mm | - | 77 W/m² | - |
| 1778076755 | 12.22° C | 84% | 1014.2 hPa | 0 mm | - | 84 W/m² | - |
| 1778076693 | 12.22° C | 84% | 1014.2 hPa | 0 mm | - | 98 W/m² | - |
| 1778076454 | 12.22° C | 84% | 1014.1 hPa | 0 mm | - | 125 W/m² | - |
| 1778076136 | 11.67° C | 85% | 1014.2 hPa | 0 mm | - | 86 W/m² | - |
| 1778075893 | 11.67° C | 85% | 1014.1 hPa | 0 mm | - | 70 W/m² | - |
| 1778075651 | 11.67° C | 85% | 1013.9 hPa | 0 mm | - | 100 W/m² | - |
| 1778075592 | 11.67° C | 85% | 1013.9 hPa | 0 mm | - | 107 W/m² | - |
| 1778075466 | 11.67° C | 85% | 1013.8 hPa | 0 mm | - | 109 W/m² | - |
| 1778075409 | 11.67° C | 85% | 1013.8 hPa | 0 mm | - | 111 W/m² | - |
| 1778075341 | 11.67° C | 86% | 1013.9 hPa | 0 mm | - | 102 W/m² | - |
* Rain latest hour (hover to see other rain measurements)
** Current wind speed in m/s (hover to see current wind gust speed)